sensor_id;sensor_type;location;lat;lon;timestamp;P1;durP1;ratioP1;P2;durP2;ratioP2
76591;SDS011;65481;47.600;19.682;2023-04-06T00:01:10;13.23;;;8.25;;
76591;SDS011;65481;47.600;19.682;2023-04-06T00:06:11;14.75;;;8.75;;
76591;SDS011;65481;47.600;19.682;2023-04-06T00:11:11;16.75;;;9.00;;
76591;SDS011;65481;47.600;19.682;2023-04-06T00:16:11;14.13;;;8.95;;
76591;SDS011;65481;47.600;19.682;2023-04-06T00:21:12;16.10;;;8.98;;
76591;SDS011;65481;47.600;19.682;2023-04-06T00:26:14;13.45;;;8.82;;
76591;SDS011;65481;47.600;19.682;2023-04-06T00:31:14;18.38;;;9.43;;
76591;SDS011;65481;47.600;19.682;2023-04-06T00:36:15;21.25;;;9.88;;
76591;SDS011;65481;47.600;19.682;2023-04-06T00:41:17;14.60;;;9.77;;
76591;SDS011;65481;47.600;19.682;2023-04-06T00:46:18;16.33;;;8.57;;
76591;SDS011;65481;47.600;19.682;2023-04-06T00:51:18;14.05;;;8.00;;
76591;SDS011;65481;47.600;19.682;2023-04-06T00:56:19;15.77;;;9.02;;
76591;SDS011;65481;47.600;19.682;2023-04-06T01:01:20;21.13;;;8.98;;
76591;SDS011;65481;47.600;19.682;2023-04-06T01:06:20;16.80;;;8.18;;
76591;SDS011;65481;47.600;19.682;2023-04-06T01:11:21;13.60;;;8.60;;
76591;SDS011;65481;47.600;19.682;2023-04-06T01:16:22;16.40;;;9.13;;
76591;SDS011;65481;47.600;19.682;2023-04-06T01:21:22;12.55;;;8.10;;
76591;SDS011;65481;47.600;19.682;2023-04-06T01:26:23;17.60;;;9.63;;
76591;SDS011;65481;47.600;19.682;2023-04-06T01:31:24;13.25;;;8.75;;
76591;SDS011;65481;47.600;19.682;2023-04-06T01:36:24;13.80;;;8.02;;
76591;SDS011;65481;47.600;19.682;2023-04-06T01:41:25;19.55;;;10.48;;
76591;SDS011;65481;47.600;19.682;2023-04-06T01:46:26;18.95;;;9.93;;
76591;SDS011;65481;47.600;19.682;2023-04-06T01:51:26;19.80;;;11.07;;
76591;SDS011;65481;47.600;19.682;2023-04-06T01:56:27;21.92;;;12.50;;
76591;SDS011;65481;47.600;19.682;2023-04-06T02:01:27;13.63;;;7.68;;
76591;SDS011;65481;47.600;19.682;2023-04-06T02:06:28;11.88;;;7.60;;
76591;SDS011;65481;47.600;19.682;2023-04-06T02:11:28;15.18;;;8.20;;
76591;SDS011;65481;47.600;19.682;2023-04-06T02:16:29;12.93;;;8.13;;
76591;SDS011;65481;47.600;19.682;2023-04-06T02:21:29;14.88;;;8.15;;
76591;SDS011;65481;47.600;19.682;2023-04-06T02:26:30;13.68;;;7.90;;
76591;SDS011;65481;47.600;19.682;2023-04-06T02:31:30;12.55;;;7.38;;
76591;SDS011;65481;47.600;19.682;2023-04-06T02:36:31;12.40;;;7.32;;
76591;SDS011;65481;47.600;19.682;2023-04-06T02:41:31;12.32;;;7.32;;
76591;SDS011;65481;47.600;19.682;2023-04-06T02:46:32;14.45;;;7.00;;
76591;SDS011;65481;47.600;19.682;2023-04-06T02:51:32;14.27;;;7.72;;
76591;SDS011;65481;47.600;19.682;2023-04-06T02:56:33;14.60;;;8.40;;
76591;SDS011;65481;47.600;19.682;2023-04-06T03:01:33;12.48;;;7.28;;
76591;SDS011;65481;47.600;19.682;2023-04-06T03:06:34;14.00;;;7.93;;
76591;SDS011;65481;47.600;19.682;2023-04-06T03:11:35;15.07;;;8.40;;
76591;SDS011;65481;47.600;19.682;2023-04-06T03:16:35;16.00;;;8.27;;
76591;SDS011;65481;47.600;19.682;2023-04-06T03:21:36;14.15;;;9.43;;
76591;SDS011;65481;47.600;19.682;2023-04-06T03:26:37;14.63;;;8.68;;
76591;SDS011;65481;47.600;19.682;2023-04-06T03:31:37;19.05;;;9.20;;
76591;SDS011;65481;47.600;19.682;2023-04-06T03:36:38;13.38;;;8.40;;
76591;SDS011;65481;47.600;19.682;2023-04-06T03:41:38;13.60;;;8.45;;
76591;SDS011;65481;47.600;19.682;2023-04-06T03:46:39;15.32;;;8.48;;
76591;SDS011;65481;47.600;19.682;2023-04-06T03:51:39;15.68;;;7.93;;
76591;SDS011;65481;47.600;19.682;2023-04-06T03:56:40;12.23;;;7.68;;
76591;SDS011;65481;47.600;19.682;2023-04-06T04:01:40;12.43;;;8.18;;
76591;SDS011;65481;47.600;19.682;2023-04-06T04:06:41;17.30;;;8.10;;
76591;SDS011;65481;47.600;19.682;2023-04-06T04:11:42;22.05;;;9.55;;
76591;SDS011;65481;47.600;19.682;2023-04-06T04:16:42;15.73;;;8.40;;
76591;SDS011;65481;47.600;19.682;2023-04-06T04:21:45;17.33;;;9.10;;
76591;SDS011;65481;47.600;19.682;2023-04-06T04:26:46;16.90;;;9.02;;
76591;SDS011;65481;47.600;19.682;2023-04-06T04:31:47;15.60;;;8.25;;
76591;SDS011;65481;47.600;19.682;2023-04-06T04:36:47;18.20;;;9.40;;
76591;SDS011;65481;47.600;19.682;2023-04-06T04:41:48;16.27;;;9.68;;
76591;SDS011;65481;47.600;19.682;2023-04-06T04:46:48;16.08;;;10.23;;
76591;SDS011;65481;47.600;19.682;2023-04-06T04:51:49;16.05;;;8.20;;
76591;SDS011;65481;47.600;19.682;2023-04-06T04:56:52;17.38;;;9.52;;
76591;SDS011;65481;47.600;19.682;2023-04-06T05:01:53;21.10;;;10.93;;
76591;SDS011;65481;47.600;19.682;2023-04-06T05:07:06;25.15;;;12.35;;
76591;SDS011;65481;47.600;19.682;2023-04-06T05:12:08;18.35;;;10.23;;
76591;SDS011;65481;47.600;19.682;2023-04-06T05:17:08;19.50;;;11.88;;
76591;SDS011;65481;47.600;19.682;2023-04-06T05:22:09;20.55;;;10.93;;
76591;SDS011;65481;47.600;19.682;2023-04-06T05:27:10;19.30;;;9.77;;
76591;SDS011;65481;47.600;19.682;2023-04-06T05:32:10;21.55;;;11.90;;
76591;SDS011;65481;47.600;19.682;2023-04-06T05:37:11;14.25;;;9.18;;
76591;SDS011;65481;47.600;19.682;2023-04-06T05:42:11;25.40;;;13.15;;
76591;SDS011;65481;47.600;19.682;2023-04-06T05:47:12;23.95;;;14.60;;
76591;SDS011;65481;47.600;19.682;2023-04-06T05:52:12;17.40;;;10.63;;
76591;SDS011;65481;47.600;19.682;2023-04-06T05:57:13;18.77;;;9.90;;
76591;SDS011;65481;47.600;19.682;2023-04-06T06:02:13;22.50;;;11.15;;
76591;SDS011;65481;47.600;19.682;2023-04-06T06:07:14;15.65;;;9.30;;
76591;SDS011;65481;47.600;19.682;2023-04-06T06:12:15;16.27;;;10.10;;
76591;SDS011;65481;47.600;19.682;2023-04-06T06:17:15;15.10;;;9.57;;
76591;SDS011;65481;47.600;19.682;2023-04-06T06:22:16;14.80;;;9.90;;
76591;SDS011;65481;47.600;19.682;2023-04-06T06:27:16;17.83;;;10.45;;
76591;SDS011;65481;47.600;19.682;2023-04-06T06:32:17;20.02;;;11.27;;
76591;SDS011;65481;47.600;19.682;2023-04-06T06:37:18;16.33;;;9.93;;
76591;SDS011;65481;47.600;19.682;2023-04-06T06:42:18;14.68;;;9.27;;
76591;SDS011;65481;47.600;19.682;2023-04-06T06:47:19;19.55;;;9.07;;
76591;SDS011;65481;47.600;19.682;2023-04-06T06:52:19;13.60;;;9.30;;
76591;SDS011;65481;47.600;19.682;2023-04-06T06:57:20;13.95;;;9.52;;
76591;SDS011;65481;47.600;19.682;2023-04-06T07:02:20;16.73;;;9.90;;
76591;SDS011;65481;47.600;19.682;2023-04-06T07:07:21;11.98;;;9.52;;
76591;SDS011;65481;47.600;19.682;2023-04-06T07:12:21;15.43;;;10.07;;
76591;SDS011;65481;47.600;19.682;2023-04-06T07:17:22;16.10;;;10.57;;
76591;SDS011;65481;47.600;19.682;2023-04-06T07:22:22;19.00;;;11.15;;
76591;SDS011;65481;47.600;19.682;2023-04-06T07:27:23;15.05;;;8.75;;
76591;SDS011;65481;47.600;19.682;2023-04-06T07:32:23;15.73;;;10.60;;
76591;SDS011;65481;47.600;19.682;2023-04-06T07:37:24;13.88;;;9.15;;
76591;SDS011;65481;47.600;19.682;2023-04-06T07:42:25;13.07;;;9.35;;
76591;SDS011;65481;47.600;19.682;2023-04-06T07:47:26;13.65;;;9.40;;
76591;SDS011;65481;47.600;19.682;2023-04-06T07:52:26;12.32;;;8.55;;
76591;SDS011;65481;47.600;19.682;2023-04-06T07:57:26;10.82;;;8.05;;
76591;SDS011;65481;47.600;19.682;2023-04-06T08:02:27;11.63;;;8.27;;
76591;SDS011;65481;47.600;19.682;2023-04-06T08:07:27;11.07;;;7.97;;
76591;SDS011;65481;47.600;19.682;2023-04-06T08:12:28;11.93;;;7.85;;
76591;SDS011;65481;47.600;19.682;2023-04-06T08:17:29;10.30;;;7.15;;
76591;SDS011;65481;47.600;19.682;2023-04-06T08:22:31;12.15;;;8.18;;
76591;SDS011;65481;47.600;19.682;2023-04-06T08:27:31;15.68;;;9.43;;
76591;SDS011;65481;47.600;19.682;2023-04-06T08:32:32;19.55;;;11.38;;
76591;SDS011;65481;47.600;19.682;2023-04-06T08:37:32;12.02;;;8.27;;
76591;SDS011;65481;47.600;19.682;2023-04-06T08:42:33;11.60;;;6.28;;
76591;SDS011;65481;47.600;19.682;2023-04-06T08:47:40;10.10;;;6.57;;
76591;SDS011;65481;47.600;19.682;2023-04-06T08:52:41;12.45;;;7.40;;
76591;SDS011;65481;47.600;19.682;2023-04-06T08:57:43;8.00;;;6.88;;
76591;SDS011;65481;47.600;19.682;2023-04-06T09:02:45;11.05;;;6.57;;
76591;SDS011;65481;47.600;19.682;2023-04-06T09:07:48;11.25;;;6.38;;
76591;SDS011;65481;47.600;19.682;2023-04-06T09:12:49;9.80;;;6.75;;
76591;SDS011;65481;47.600;19.682;2023-04-06T09:17:50;12.13;;;8.20;;
76591;SDS011;65481;47.600;19.682;2023-04-06T09:22:52;11.85;;;6.88;;
76591;SDS011;65481;47.600;19.682;2023-04-06T09:28:03;8.98;;;6.50;;
76591;SDS011;65481;47.600;19.682;2023-04-06T09:33:04;9.82;;;6.60;;
76591;SDS011;65481;47.600;19.682;2023-04-06T09:38:10;10.20;;;7.18;;
76591;SDS011;65481;47.600;19.682;2023-04-06T09:43:11;14.95;;;8.68;;
76591;SDS011;65481;47.600;19.682;2023-04-06T09:48:11;10.38;;;7.43;;
76591;SDS011;65481;47.600;19.682;2023-04-06T09:53:12;10.40;;;6.70;;
76591;SDS011;65481;47.600;19.682;2023-04-06T09:58:13;9.60;;;6.10;;
76591;SDS011;65481;47.600;19.682;2023-04-06T10:08:29;11.23;;;6.53;;
76591;SDS011;65481;47.600;19.682;2023-04-06T10:13:32;11.88;;;7.10;;
76591;SDS011;65481;47.600;19.682;2023-04-06T10:18:33;11.82;;;7.55;;
76591;SDS011;65481;47.600;19.682;2023-04-06T10:23:44;10.00;;;7.05;;
76591;SDS011;65481;47.600;19.682;2023-04-06T10:28:48;15.90;;;7.47;;
76591;SDS011;65481;47.600;19.682;2023-04-06T10:34:08;10.18;;;6.60;;
76591;SDS011;65481;47.600;19.682;2023-04-06T10:39:08;16.92;;;8.85;;
76591;SDS011;65481;47.600;19.682;2023-04-06T10:44:16;11.02;;;7.03;;
76591;SDS011;65481;47.600;19.682;2023-04-06T10:49:20;31.27;;;14.48;;
76591;SDS011;65481;47.600;19.682;2023-04-06T10:54:21;15.93;;;8.52;;
76591;SDS011;65481;47.600;19.682;2023-04-06T10:59:23;13.75;;;8.68;;
76591;SDS011;65481;47.600;19.682;2023-04-06T11:04:25;10.55;;;7.30;;
76591;SDS011;65481;47.600;19.682;2023-04-06T11:09:29;52.58;;;27.05;;
76591;SDS011;65481;47.600;19.682;2023-04-06T11:14:31;14.02;;;8.55;;
76591;SDS011;65481;47.600;19.682;2023-04-06T11:19:31;14.70;;;8.85;;
76591;SDS011;65481;47.600;19.682;2023-04-06T11:24:33;41.58;;;13.32;;
76591;SDS011;65481;47.600;19.682;2023-04-06T11:29:33;17.73;;;9.23;;
76591;SDS011;65481;47.600;19.682;2023-04-06T11:34:37;31.75;;;15.55;;
76591;SDS011;65481;47.600;19.682;2023-04-06T11:39:43;11.15;;;7.18;;
76591;SDS011;65481;47.600;19.682;2023-04-06T11:44:49;38.42;;;19.65;;
76591;SDS011;65481;47.600;19.682;2023-04-06T11:49:52;17.42;;;10.60;;
76591;SDS011;65481;47.600;19.682;2023-04-06T11:54:53;19.00;;;10.02;;
76591;SDS011;65481;47.600;19.682;2023-04-06T11:59:56;15.52;;;9.68;;
76591;SDS011;65481;47.600;19.682;2023-04-06T12:04:57;13.23;;;9.60;;
76591;SDS011;65481;47.600;19.682;2023-04-06T12:09:58;13.77;;;9.55;;
76591;SDS011;65481;47.600;19.682;2023-04-06T12:14:59;14.18;;;9.32;;
76591;SDS011;65481;47.600;19.682;2023-04-06T12:20:00;15.35;;;9.70;;
76591;SDS011;65481;47.600;19.682;2023-04-06T12:25:01;16.52;;;11.15;;
76591;SDS011;65481;47.600;19.682;2023-04-06T12:30:01;17.17;;;11.48;;
76591;SDS011;65481;47.600;19.682;2023-04-06T12:35:02;19.33;;;11.48;;
76591;SDS011;65481;47.600;19.682;2023-04-06T12:40:03;17.80;;;10.82;;
76591;SDS011;65481;47.600;19.682;2023-04-06T12:45:04;18.33;;;11.45;;
76591;SDS011;65481;47.600;19.682;2023-04-06T12:50:05;16.45;;;10.45;;
76591;SDS011;65481;47.600;19.682;2023-04-06T12:55:06;14.73;;;9.85;;
76591;SDS011;65481;47.600;19.682;2023-04-06T13:00:07;12.23;;;9.43;;
76591;SDS011;65481;47.600;19.682;2023-04-06T13:05:09;15.48;;;10.32;;
76591;SDS011;65481;47.600;19.682;2023-04-06T13:10:09;13.13;;;8.35;;
76591;SDS011;65481;47.600;19.682;2023-04-06T13:15:10;13.05;;;9.15;;
76591;SDS011;65481;47.600;19.682;2023-04-06T13:20:11;14.27;;;9.75;;
76591;SDS011;65481;47.600;19.682;2023-04-06T13:25:12;11.52;;;7.80;;
76591;SDS011;65481;47.600;19.682;2023-04-06T13:30:14;10.95;;;7.97;;
76591;SDS011;65481;47.600;19.682;2023-04-06T13:35:15;11.30;;;8.13;;
76591;SDS011;65481;47.600;19.682;2023-04-06T13:40:16;13.07;;;8.35;;
76591;SDS011;65481;47.600;19.682;2023-04-06T13:45:17;11.00;;;8.18;;
76591;SDS011;65481;47.600;19.682;2023-04-06T13:50:17;13.07;;;9.18;;
76591;SDS011;65481;47.600;19.682;2023-04-06T13:55:18;11.50;;;8.38;;
76591;SDS011;65481;47.600;19.682;2023-04-06T14:00:19;13.73;;;8.15;;
76591;SDS011;65481;47.600;19.682;2023-04-06T14:05:20;13.40;;;8.63;;
76591;SDS011;65481;47.600;19.682;2023-04-06T14:10:22;13.90;;;8.68;;
76591;SDS011;65481;47.600;19.682;2023-04-06T14:15:23;11.77;;;7.60;;
76591;SDS011;65481;47.600;19.682;2023-04-06T14:20:24;12.60;;;7.80;;
76591;SDS011;65481;47.600;19.682;2023-04-06T14:25:27;10.07;;;7.65;;
76591;SDS011;65481;47.600;19.682;2023-04-06T14:30:29;12.57;;;8.20;;
76591;SDS011;65481;47.600;19.682;2023-04-06T14:35:30;15.02;;;8.57;;
76591;SDS011;65481;47.600;19.682;2023-04-06T14:40:52;16.40;;;8.65;;
76591;SDS011;65481;47.600;19.682;2023-04-06T14:45:53;12.18;;;8.10;;
76591;SDS011;65481;47.600;19.682;2023-04-06T14:50:56;13.10;;;8.93;;
76591;SDS011;65481;47.600;19.682;2023-04-06T14:55:57;13.30;;;8.77;;
76591;SDS011;65481;47.600;19.682;2023-04-06T15:00:58;11.35;;;8.07;;
76591;SDS011;65481;47.600;19.682;2023-04-06T15:06:00;15.40;;;9.82;;
76591;SDS011;65481;47.600;19.682;2023-04-06T15:11:00;13.27;;;9.02;;
76591;SDS011;65481;47.600;19.682;2023-04-06T15:16:01;14.63;;;10.45;;
76591;SDS011;65481;47.600;19.682;2023-04-06T15:21:01;17.52;;;10.27;;
76591;SDS011;65481;47.600;19.682;2023-04-06T15:26:02;19.08;;;13.18;;
76591;SDS011;65481;47.600;19.682;2023-04-06T15:31:12;16.50;;;11.07;;
76591;SDS011;65481;47.600;19.682;2023-04-06T15:36:25;22.27;;;12.20;;
76591;SDS011;65481;47.600;19.682;2023-04-06T15:46:31;21.57;;;13.17;;
76591;SDS011;65481;47.600;19.682;2023-04-06T15:51:31;18.98;;;11.52;;
76591;SDS011;65481;47.600;19.682;2023-04-06T15:56:32;24.27;;;13.93;;
76591;SDS011;65481;47.600;19.682;2023-04-06T16:01:33;23.95;;;14.60;;
76591;SDS011;65481;47.600;19.682;2023-04-06T16:06:34;26.08;;;16.33;;
76591;SDS011;65481;47.600;19.682;2023-04-06T16:11:34;17.38;;;11.50;;
76591;SDS011;65481;47.600;19.682;2023-04-06T16:16:36;20.48;;;12.40;;
76591;SDS011;65481;47.600;19.682;2023-04-06T16:21:36;21.52;;;13.02;;
76591;SDS011;65481;47.600;19.682;2023-04-06T16:26:38;34.03;;;21.75;;
76591;SDS011;65481;47.600;19.682;2023-04-06T16:31:39;35.30;;;20.60;;
76591;SDS011;65481;47.600;19.682;2023-04-06T16:36:39;23.20;;;15.35;;
76591;SDS011;65481;47.600;19.682;2023-04-06T16:41:41;20.42;;;12.82;;
76591;SDS011;65481;47.600;19.682;2023-04-06T16:46:42;31.85;;;17.88;;
76591;SDS011;65481;47.600;19.682;2023-04-06T16:51:43;25.88;;;14.73;;
76591;SDS011;65481;47.600;19.682;2023-04-06T16:56:43;22.05;;;13.63;;
76591;SDS011;65481;47.600;19.682;2023-04-06T17:01:44;23.42;;;14.85;;
76591;SDS011;65481;47.600;19.682;2023-04-06T17:06:45;27.20;;;17.40;;
76591;SDS011;65481;47.600;19.682;2023-04-06T17:11:45;21.92;;;14.48;;
76591;SDS011;65481;47.600;19.682;2023-04-06T17:16:46;21.85;;;14.98;;
76591;SDS011;65481;47.600;19.682;2023-04-06T17:21:46;23.77;;;12.85;;
76591;SDS011;65481;47.600;19.682;2023-04-06T17:26:47;23.80;;;14.63;;
76591;SDS011;65481;47.600;19.682;2023-04-06T17:31:47;23.67;;;15.50;;
76591;SDS011;65481;47.600;19.682;2023-04-06T17:36:48;27.30;;;17.92;;
76591;SDS011;65481;47.600;19.682;2023-04-06T17:41:49;27.70;;;17.98;;
76591;SDS011;65481;47.600;19.682;2023-04-06T17:46:50;25.85;;;16.13;;
76591;SDS011;65481;47.600;19.682;2023-04-06T17:51:51;25.73;;;15.50;;
76591;SDS011;65481;47.600;19.682;2023-04-06T17:56:51;30.50;;;18.35;;
76591;SDS011;65481;47.600;19.682;2023-04-06T18:01:52;28.27;;;19.17;;
76591;SDS011;65481;47.600;19.682;2023-04-06T18:06:53;41.80;;;23.42;;
76591;SDS011;65481;47.600;19.682;2023-04-06T18:11:53;31.10;;;20.58;;
76591;SDS011;65481;47.600;19.682;2023-04-06T18:16:56;28.48;;;17.52;;
76591;SDS011;65481;47.600;19.682;2023-04-06T18:21:57;25.27;;;16.38;;
76591;SDS011;65481;47.600;19.682;2023-04-06T18:26:58;27.10;;;16.27;;
76591;SDS011;65481;47.600;19.682;2023-04-06T18:31:58;30.77;;;18.48;;
76591;SDS011;65481;47.600;19.682;2023-04-06T18:36:59;31.73;;;18.60;;
76591;SDS011;65481;47.600;19.682;2023-04-06T18:42:00;39.33;;;23.63;;
76591;SDS011;65481;47.600;19.682;2023-04-06T18:47:02;29.55;;;19.75;;
76591;SDS011;65481;47.600;19.682;2023-04-06T18:52:05;35.72;;;20.65;;
76591;SDS011;65481;47.600;19.682;2023-04-06T18:57:06;34.25;;;20.65;;
76591;SDS011;65481;47.600;19.682;2023-04-06T19:02:07;34.33;;;18.95;;
76591;SDS011;65481;47.600;19.682;2023-04-06T19:07:07;31.10;;;17.45;;
76591;SDS011;65481;47.600;19.682;2023-04-06T19:12:08;23.20;;;14.57;;
76591;SDS011;65481;47.600;19.682;2023-04-06T19:17:08;23.55;;;14.48;;
76591;SDS011;65481;47.600;19.682;2023-04-06T19:22:09;23.15;;;14.65;;
76591;SDS011;65481;47.600;19.682;2023-04-06T19:27:10;23.15;;;14.48;;
76591;SDS011;65481;47.600;19.682;2023-04-06T19:32:11;24.05;;;15.25;;
76591;SDS011;65481;47.600;19.682;2023-04-06T19:37:11;22.50;;;14.98;;
76591;SDS011;65481;47.600;19.682;2023-04-06T19:42:12;25.63;;;14.77;;
76591;SDS011;65481;47.600;19.682;2023-04-06T19:47:14;25.45;;;15.85;;
76591;SDS011;65481;47.600;19.682;2023-04-06T19:52:15;27.25;;;15.68;;
76591;SDS011;65481;47.600;19.682;2023-04-06T19:57:15;24.27;;;14.93;;
76591;SDS011;65481;47.600;19.682;2023-04-06T20:02:16;29.45;;;15.50;;
76591;SDS011;65481;47.600;19.682;2023-04-06T20:07:17;25.90;;;16.92;;
76591;SDS011;65481;47.600;19.682;2023-04-06T20:12:18;29.65;;;17.55;;
76591;SDS011;65481;47.600;19.682;2023-04-06T20:17:19;27.50;;;17.35;;
76591;SDS011;65481;47.600;19.682;2023-04-06T20:22:21;28.10;;;17.85;;
76591;SDS011;65481;47.600;19.682;2023-04-06T20:27:21;36.90;;;20.52;;
76591;SDS011;65481;47.600;19.682;2023-04-06T20:32:22;30.80;;;18.80;;
76591;SDS011;65481;47.600;19.682;2023-04-06T20:37:22;36.30;;;21.15;;
76591;SDS011;65481;47.600;19.682;2023-04-06T20:42:23;34.47;;;20.08;;
76591;SDS011;65481;47.600;19.682;2023-04-06T20:47:24;36.13;;;21.42;;
76591;SDS011;65481;47.600;19.682;2023-04-06T20:52:26;35.78;;;20.38;;
76591;SDS011;65481;47.600;19.682;2023-04-06T20:57:26;39.70;;;21.98;;
76591;SDS011;65481;47.600;19.682;2023-04-06T21:02:27;38.83;;;21.42;;
76591;SDS011;65481;47.600;19.682;2023-04-06T21:07:27;38.70;;;21.05;;
76591;SDS011;65481;47.600;19.682;2023-04-06T21:12:29;39.65;;;22.13;;
76591;SDS011;65481;47.600;19.682;2023-04-06T21:17:30;37.60;;;22.95;;
76591;SDS011;65481;47.600;19.682;2023-04-06T21:22:31;41.22;;;21.35;;
76591;SDS011;65481;47.600;19.682;2023-04-06T21:27:31;35.70;;;20.45;;
76591;SDS011;65481;47.600;19.682;2023-04-06T21:32:32;39.05;;;21.05;;
76591;SDS011;65481;47.600;19.682;2023-04-06T21:37:33;36.90;;;21.25;;
76591;SDS011;65481;47.600;19.682;2023-04-06T21:42:34;42.20;;;22.90;;
76591;SDS011;65481;47.600;19.682;2023-04-06T21:47:35;37.22;;;21.33;;
76591;SDS011;65481;47.600;19.682;2023-04-06T21:52:35;36.25;;;20.75;;
76591;SDS011;65481;47.600;19.682;2023-04-06T21:57:36;33.22;;;19.27;;
76591;SDS011;65481;47.600;19.682;2023-04-06T22:02:36;33.60;;;21.08;;
76591;SDS011;65481;47.600;19.682;2023-04-06T22:07:38;34.60;;;19.73;;
76591;SDS011;65481;47.600;19.682;2023-04-06T22:12:39;35.15;;;19.90;;
76591;SDS011;65481;47.600;19.682;2023-04-06T22:17:39;34.35;;;19.23;;
76591;SDS011;65481;47.600;19.682;2023-04-06T22:22:40;34.78;;;20.75;;
76591;SDS011;65481;47.600;19.682;2023-04-06T22:27:41;36.22;;;20.40;;
76591;SDS011;65481;47.600;19.682;2023-04-06T22:32:41;34.95;;;20.30;;
76591;SDS011;65481;47.600;19.682;2023-04-06T22:37:42;37.00;;;20.17;;
76591;SDS011;65481;47.600;19.682;2023-04-06T22:42:43;36.08;;;20.17;;
76591;SDS011;65481;47.600;19.682;2023-04-06T22:47:43;36.08;;;21.30;;
76591;SDS011;65481;47.600;19.682;2023-04-06T22:52:44;33.10;;;20.20;;
76591;SDS011;65481;47.600;19.682;2023-04-06T22:57:44;34.65;;;21.95;;
76591;SDS011;65481;47.600;19.682;2023-04-06T23:02:45;34.92;;;20.38;;
76591;SDS011;65481;47.600;19.682;2023-04-06T23:07:45;33.10;;;20.77;;
76591;SDS011;65481;47.600;19.682;2023-04-06T23:12:46;34.80;;;20.38;;
76591;SDS011;65481;47.600;19.682;2023-04-06T23:17:47;35.70;;;20.83;;
76591;SDS011;65481;47.600;19.682;2023-04-06T23:22:47;35.58;;;20.48;;
76591;SDS011;65481;47.600;19.682;2023-04-06T23:27:48;41.15;;;20.83;;
76591;SDS011;65481;47.600;19.682;2023-04-06T23:32:48;34.75;;;20.55;;
76591;SDS011;65481;47.600;19.682;2023-04-06T23:37:49;38.28;;;21.02;;
76591;SDS011;65481;47.600;19.682;2023-04-06T23:42:50;39.47;;;22.20;;
76591;SDS011;65481;47.600;19.682;2023-04-06T23:47:50;35.95;;;21.20;;
76591;SDS011;65481;47.600;19.682;2023-04-06T23:52:50;38.50;;;21.08;;
76591;SDS011;65481;47.600;19.682;2023-04-06T23:57:51;36.33;;;21.23;;
